createdAt,value
2017-10-11T00:01:00.004Z,50.13
2017-10-11T00:03:27.623Z,48.20
2017-10-11T00:05:55.037Z,46.17
2017-10-11T00:08:23.964Z,48.33
2017-10-11T00:10:51.389Z,46.90
2017-10-11T00:13:21.362Z,42.57
2017-10-11T00:15:49.655Z,49.03
2017-10-11T00:18:17.079Z,49.23
2017-10-11T00:20:44.502Z,44.53
2017-10-11T00:23:11.951Z,44.80
2017-10-11T00:25:39.484Z,43.13
2017-10-11T00:28:06.882Z,47.97
2017-10-11T00:30:35.066Z,47.43
2017-10-11T00:33:03.255Z,43.47
2017-10-11T00:35:30.679Z,48.70
2017-10-11T00:37:58.869Z,44.47
2017-10-11T00:40:27.075Z,42.90
2017-10-11T00:42:54.495Z,48.27
2017-10-11T00:45:22.679Z,47.77
2017-10-11T00:47:51.796Z,48.70
2017-10-11T00:50:19.218Z,44.30
2017-10-11T00:52:47.411Z,43.97
2017-10-11T00:55:14.831Z,52.13
2017-10-11T00:57:42.264Z,47.40
2017-10-11T01:00:09.702Z,45.13
2017-10-11T01:02:37.128Z,47.83
2017-10-11T01:05:04.548Z,44.10
2017-10-11T01:07:31.992Z,49.80
2017-10-11T01:09:59.420Z,44.70
2017-10-11T01:12:26.842Z,38.70
2017-10-11T01:14:55.014Z,45.70
2017-10-11T01:17:23.198Z,38.30
2017-10-11T01:19:50.652Z,39.63
2017-10-11T01:22:18.819Z,37.17
2017-10-11T01:24:47.006Z,49.27
2017-10-11T01:27:14.427Z,36.63
2017-10-11T01:29:42.618Z,43.07
2017-10-11T01:32:10.808Z,45.47
2017-10-11T01:34:38.231Z,40.13
2017-10-11T01:37:05.717Z,39.70
2017-10-11T01:39:33.883Z,39.53
2017-10-11T01:42:02.066Z,39.10
2017-10-11T01:44:29.546Z,39.43
2017-10-11T01:46:56.979Z,38.07
2017-10-11T01:49:25.171Z,37.30
2017-10-11T01:51:52.604Z,36.87
2017-10-11T01:54:20.780Z,39.70
2017-10-11T01:56:48.962Z,34.70
2017-10-11T01:59:16.395Z,31.87
2017-10-11T02:01:44.585Z,35.37
2017-10-11T02:04:12.767Z,30.17
2017-10-11T02:06:40.197Z,36.80
2017-10-11T02:09:08.375Z,31.17
2017-10-11T02:11:36.598Z,30.67
2017-10-11T02:14:04.002Z,35.30
2017-10-11T02:16:32.193Z,27.43
2017-10-11T02:18:59.614Z,31.50
2017-10-11T02:21:27.059Z,25.53
2017-10-11T02:23:54.462Z,29.23
2017-10-11T02:26:21.895Z,31.00
2017-10-11T02:28:50.201Z,30.43
2017-10-11T02:31:17.615Z,32.53
2017-10-11T02:33:45.053Z,30.80
2017-10-11T02:36:12.472Z,28.60
2017-10-11T02:38:40.448Z,28.03
2017-10-11T02:41:07.890Z,26.03
2017-10-11T02:43:36.065Z,31.60
2017-10-11T02:46:03.487Z,25.17
2017-10-11T02:48:30.935Z,28.30
2017-10-11T02:50:58.334Z,32.43
2017-10-11T02:53:25.754Z,26.73
2017-10-11T02:55:54.579Z,32.57
2017-10-11T02:58:22.763Z,27.93
2017-10-11T03:00:50.175Z,28.30
2017-10-11T03:03:17.603Z,26.83
2017-10-11T03:05:45.027Z,29.20
2017-10-11T03:08:12.459Z,25.67
2017-10-11T03:10:40.651Z,28.80
2017-10-11T03:13:08.067Z,24.67
2017-10-11T03:15:35.495Z,24.90
2017-10-11T03:18:03.048Z,28.00
2017-10-11T03:20:30.464Z,25.00
2017-10-11T03:22:58.655Z,27.60
2017-10-11T03:25:26.086Z,24.50
2017-10-11T03:27:55.207Z,25.23
2017-10-11T03:30:24.376Z,26.87
2017-10-11T03:32:52.562Z,25.73
2017-10-11T03:35:19.988Z,24.53
2017-10-11T03:37:47.411Z,24.40
2017-10-11T03:40:14.837Z,23.90
2017-10-11T03:42:43.015Z,23.73
2017-10-11T03:45:10.443Z,21.80
2017-10-11T03:47:38.616Z,21.83
2017-10-11T03:50:06.810Z,19.67
2017-10-11T03:52:34.995Z,20.00
2017-10-11T03:55:02.415Z,18.77
2017-10-11T03:57:29.844Z,22.00
2017-10-11T03:59:57.254Z,22.80
2017-10-11T04:02:25.951Z,19.42
2017-10-11T04:04:53.395Z,20.87
2017-10-11T04:07:20.835Z,20.67
2017-10-11T04:09:49.021Z,20.80
2017-10-11T04:12:16.454Z,21.60
2017-10-11T04:14:43.911Z,19.07
2017-10-11T04:17:11.319Z,18.70
2017-10-11T04:19:38.739Z,19.90
2017-10-11T04:22:06.947Z,19.43
2017-10-11T04:24:34.352Z,23.97
2017-10-11T04:27:02.542Z,17.83
2017-10-11T04:29:34.358Z,21.10
2017-10-11T04:32:01.778Z,24.60
2017-10-11T04:34:29.209Z,19.47
2017-10-11T04:36:57.415Z,17.87
2017-10-11T04:39:24.834Z,18.93
2017-10-11T04:41:53.031Z,21.40
2017-10-11T04:44:20.492Z,19.60
2017-10-11T04:46:47.927Z,19.50
2017-10-11T04:49:16.122Z,22.93
2017-10-11T04:51:43.559Z,19.80
2017-10-11T04:54:11.751Z,18.40
2017-10-11T04:56:39.191Z,22.47
2017-10-11T04:59:07.411Z,21.77
2017-10-11T05:01:34.856Z,21.83
2017-10-11T05:04:02.270Z,23.00
2017-10-11T05:06:29.691Z,22.40
2017-10-11T05:08:57.119Z,22.50
2017-10-11T05:11:24.528Z,21.37
2017-10-11T05:13:51.956Z,23.20
2017-10-11T05:16:19.376Z,20.63
2017-10-11T05:18:46.822Z,17.33
2017-10-11T05:21:14.998Z,19.83
2017-10-11T05:23:42.414Z,20.63
2017-10-11T05:26:09.844Z,22.70
2017-10-11T05:28:37.282Z,18.77
2017-10-11T05:31:04.721Z,17.50
2017-10-11T05:33:32.907Z,18.50
2017-10-11T05:36:00.360Z,18.23
2017-10-11T05:38:27.787Z,21.23
2017-10-11T05:40:55.972Z,17.60
2017-10-11T05:43:24.199Z,20.07
2017-10-11T05:45:51.614Z,19.77
2017-10-11T05:48:19.060Z,23.40
2017-10-11T05:50:47.263Z,16.00
2017-10-11T05:53:14.804Z,22.30
2017-10-11T05:55:42.220Z,22.97
2017-10-11T05:58:09.663Z,22.37
2017-10-11T06:00:37.096Z,23.30
2017-10-11T06:03:04.508Z,17.93
2017-10-11T06:05:32.704Z,21.60
2017-10-11T06:08:00.155Z,21.77
2017-10-11T06:10:28.731Z,25.37
2017-10-11T06:12:56.956Z,23.60
2017-10-11T06:15:24.371Z,25.23
2017-10-11T06:17:51.825Z,29.03
2017-10-11T06:20:20.003Z,26.17
2017-10-11T06:22:47.435Z,19.83
2017-10-11T06:25:15.615Z,23.00
2017-10-11T06:27:43.799Z,18.57
2017-10-11T06:30:11.983Z,26.60
2017-10-11T06:32:39.420Z,25.80
2017-10-11T06:35:07.635Z,19.97
2017-10-11T06:37:35.077Z,21.87
2017-10-11T06:40:02.507Z,22.90
2017-10-11T06:42:30.734Z,19.47
2017-10-11T06:44:59.479Z,21.27
2017-10-11T06:47:26.919Z,23.00
2017-10-11T06:49:55.448Z,21.93
2017-10-11T06:52:22.863Z,20.60
2017-10-11T06:54:51.056Z,21.43
2017-10-11T06:57:18.496Z,22.70
2017-10-11T06:59:46.688Z,18.83
2017-10-11T07:02:14.138Z,20.80
2017-10-11T07:04:41.588Z,21.30
2017-10-11T07:07:09.754Z,19.60
2017-10-11T07:09:37.946Z,24.23
2017-10-11T07:12:05.381Z,20.03
2017-10-11T07:14:33.572Z,20.80
2017-10-11T07:17:01.747Z,19.80
2017-10-11T07:19:30.230Z,18.70
2017-10-11T07:21:57.672Z,23.60
2017-10-11T07:24:26.483Z,19.83
2017-10-11T07:26:54.512Z,24.80
2017-10-11T07:29:22.031Z,18.87
2017-10-11T07:31:49.469Z,19.13
2017-10-11T07:34:16.908Z,20.37
2017-10-11T07:36:45.106Z,20.10
2017-10-11T07:39:12.530Z,23.67
2017-10-11T07:41:40.714Z,19.90
2017-10-11T07:44:22.209Z,25.27
2017-10-11T07:46:49.637Z,20.80
2017-10-11T07:49:17.049Z,22.50
2017-10-11T07:51:44.502Z,19.47
2017-10-11T07:54:11.914Z,19.50
2017-10-11T07:56:40.110Z,21.67
2017-10-11T07:59:07.576Z,17.60
2017-10-11T08:01:34.978Z,22.87
2017-10-11T08:04:02.406Z,18.30
2017-10-11T08:06:31.053Z,14.98
2017-10-11T08:08:58.482Z,23.33
2017-10-11T08:11:26.674Z,15.77
2017-10-11T08:13:54.866Z,14.97
2017-10-11T08:16:22.283Z,17.03
2017-10-11T08:18:50.475Z,16.23
2017-10-11T08:21:17.906Z,17.90
2017-10-11T08:23:45.346Z,21.30
2017-10-11T08:26:12.774Z,21.30
2017-10-11T08:28:40.188Z,20.33
2017-10-11T08:31:07.610Z,18.83
2017-10-11T08:33:35.056Z,17.33
2017-10-11T08:36:02.501Z,23.30
2017-10-11T08:38:30.842Z,17.90
2017-10-11T08:40:59.046Z,14.83
2017-10-11T08:43:26.505Z,15.20
2017-10-11T08:45:53.926Z,14.70
2017-10-11T08:48:22.122Z,18.73
2017-10-11T08:50:49.566Z,22.27
2017-10-11T08:53:17.763Z,14.80
2017-10-11T08:55:45.190Z,17.30
2017-10-11T08:58:13.399Z,15.03
2017-10-11T09:00:40.811Z,21.90
2017-10-11T09:03:09.006Z,14.83
2017-10-11T09:05:36.419Z,15.57
2017-10-11T09:08:03.864Z,14.87
2017-10-11T09:10:32.403Z,15.30
2017-10-11T09:13:00.577Z,17.70
2017-10-11T09:15:28.011Z,17.87
2017-10-11T09:17:55.410Z,18.30
2017-10-11T09:20:22.863Z,17.70
2017-10-11T09:22:50.315Z,16.87
2017-10-11T09:25:17.716Z,19.43
2017-10-11T09:27:45.136Z,19.83
2017-10-11T09:30:12.563Z,20.33
2017-10-11T09:32:39.987Z,19.77
2017-10-11T09:35:07.438Z,20.50
2017-10-11T09:37:34.855Z,21.20
2017-10-11T09:40:02.307Z,21.87
2017-10-11T09:42:29.743Z,22.07
2017-10-11T09:44:57.923Z,21.80
2017-10-11T09:47:25.352Z,18.77
2017-10-11T09:49:52.780Z,16.20
2017-10-11T09:52:20.199Z,21.93
2017-10-11T09:54:47.649Z,18.93
2017-10-11T09:57:15.069Z,15.60
2017-10-11T09:59:42.502Z,15.50
2017-10-11T10:02:09.914Z,19.40
2017-10-11T10:04:37.342Z,17.53
2017-10-11T10:07:05.526Z,17.10
2017-10-11T10:09:33.731Z,17.83
2017-10-11T10:12:01.175Z,16.83
2017-10-11T10:14:28.584Z,13.83
2017-10-11T10:16:56.011Z,12.90
2017-10-11T10:19:23.447Z,15.83
2017-10-11T10:21:50.870Z,15.03
2017-10-11T10:24:19.082Z,9.90
2017-10-11T10:26:46.512Z,17.67
2017-10-11T10:29:14.714Z,10.37
2017-10-11T10:31:42.136Z,15.60
2017-10-11T10:34:10.335Z,12.53
2017-10-11T10:36:37.738Z,12.80
2017-10-11T10:39:05.151Z,12.07
2017-10-11T10:41:33.494Z,10.10
2017-10-11T10:44:01.679Z,10.20
2017-10-11T10:46:30.576Z,10.20
2017-10-11T10:48:58.768Z,12.23
2017-10-11T10:51:26.167Z,10.43
2017-10-11T10:53:53.995Z,12.87
2017-10-11T10:56:21.418Z,14.27
2017-10-11T10:58:49.627Z,9.00
2017-10-11T11:01:17.082Z,10.30
2017-10-11T11:03:44.483Z,10.00
2017-10-11T11:06:11.895Z,9.57
2017-10-11T11:08:39.344Z,11.53
2017-10-11T11:11:06.750Z,10.43
2017-10-11T11:13:34.162Z,11.13
2017-10-11T11:16:01.591Z,7.70
2017-10-11T11:18:29.790Z,13.30
2017-10-11T11:20:57.200Z,8.10
2017-10-11T11:23:25.371Z,15.43
2017-10-11T11:25:52.791Z,9.53
2017-10-11T11:28:20.225Z,8.57
2017-10-11T11:30:47.643Z,12.10
2017-10-11T11:33:15.835Z,9.83
2017-10-11T11:35:44.020Z,10.13
2017-10-11T11:38:11.449Z,14.97
2017-10-11T11:40:38.864Z,8.37
2017-10-11T11:43:06.278Z,10.63
2017-10-11T11:45:35.394Z,12.17
2017-10-11T11:48:02.820Z,19.10
2017-10-11T11:50:31.045Z,9.73
2017-10-11T11:52:58.477Z,14.80
2017-10-11T11:55:25.883Z,16.80
2017-10-11T11:57:53.311Z,9.40
2017-10-11T12:00:20.755Z,8.60
2017-10-11T12:02:48.204Z,9.33
2017-10-11T12:05:15.601Z,9.40
2017-10-11T12:07:43.019Z,9.23
2017-10-11T12:10:10.422Z,7.13
2017-10-11T12:12:37.836Z,7.97
2017-10-11T12:15:06.077Z,7.57
2017-10-11T12:17:35.179Z,9.33
2017-10-11T12:20:02.618Z,7.77
2017-10-11T12:22:30.016Z,7.00
2017-10-11T12:24:57.431Z,12.90
2017-10-11T12:27:25.633Z,13.50
2017-10-11T12:29:53.071Z,12.07
2017-10-11T12:32:21.290Z,9.40
2017-10-11T12:34:48.694Z,8.40
2017-10-11T12:37:16.883Z,9.50
2017-10-11T12:39:44.294Z,7.50
2017-10-11T12:42:11.821Z,10.77
2017-10-11T12:44:39.735Z,9.33
2017-10-11T12:47:07.143Z,9.13
2017-10-11T12:49:34.575Z,9.43
2017-10-11T12:52:01.984Z,9.00
2017-10-11T12:54:29.415Z,8.10
2017-10-11T12:56:56.833Z,11.80
2017-10-11T12:59:25.015Z,7.50
2017-10-11T13:01:52.419Z,8.00
2017-10-11T13:04:19.835Z,6.70
2017-10-11T13:06:47.243Z,7.93
2017-10-11T13:09:14.658Z,7.90
2017-10-11T13:11:42.077Z,7.87
2017-10-11T13:14:10.259Z,12.57
2017-10-11T13:16:38.447Z,19.03
2017-10-11T13:19:06.782Z,6.80
2017-10-11T13:21:34.210Z,10.97
2017-10-11T13:24:01.626Z,17.43
2017-10-11T13:26:29.804Z,8.90
2017-10-11T13:28:57.229Z,10.00
2017-10-11T13:31:24.644Z,30.93
2017-10-11T13:33:52.077Z,10.80
2017-10-11T13:36:19.483Z,10.27
2017-10-11T13:38:46.899Z,13.23
2017-10-11T13:41:14.316Z,10.77
2017-10-11T13:43:41.735Z,14.97
2017-10-11T13:46:09.151Z,23.60
2017-10-11T13:48:38.053Z,15.38
2017-10-11T13:51:05.534Z,14.20
2017-10-11T13:53:32.992Z,13.47
2017-10-11T13:56:00.421Z,13.80
2017-10-11T13:58:27.847Z,16.57
2017-10-11T14:00:55.259Z,14.30
2017-10-11T14:03:22.679Z,25.03
2017-10-11T14:05:50.888Z,19.20
2017-10-11T14:08:18.316Z,17.40
2017-10-11T14:10:45.750Z,17.30
2017-10-11T14:13:13.154Z,18.80
2017-10-11T14:15:40.583Z,19.00
2017-10-11T14:18:08.774Z,20.27
2017-10-11T14:20:36.187Z,19.43
2017-10-11T14:23:04.370Z,23.30
2017-10-11T14:25:32.587Z,18.80
2017-10-11T14:28:00.022Z,24.93
2017-10-11T14:30:27.458Z,21.50
2017-10-11T14:32:54.871Z,23.50
2017-10-11T14:35:22.299Z,23.40
2017-10-11T14:37:49.722Z,22.00
2017-10-11T14:40:17.928Z,26.47
2017-10-11T14:42:45.350Z,23.70
2017-10-11T14:45:13.510Z,21.20
2017-10-11T14:47:41.702Z,20.97
2017-10-11T14:50:09.886Z,25.63
2017-10-11T14:52:37.308Z,22.97
2017-10-11T14:55:04.734Z,18.67
2017-10-11T14:57:32.171Z,21.50
2017-10-11T14:59:59.599Z,20.80
2017-10-11T15:02:27.767Z,22.67
2017-10-11T15:04:55.947Z,21.20
2017-10-11T15:07:24.135Z,23.03
2017-10-11T15:09:51.642Z,20.30
2017-10-11T15:12:19.051Z,27.63
2017-10-11T15:14:46.471Z,22.93
2017-10-11T15:17:13.900Z,17.73
2017-10-11T15:19:41.311Z,18.03
2017-10-11T15:22:10.007Z,14.73
2017-10-11T15:24:37.448Z,15.50
2017-10-11T15:27:05.615Z,17.67
2017-10-11T15:29:33.820Z,13.97
2017-10-11T15:32:01.242Z,13.20
2017-10-11T15:34:29.415Z,14.50
2017-10-11T15:36:57.798Z,26.43
2017-10-11T15:39:25.999Z,16.97
2017-10-11T15:41:53.427Z,13.70
2017-10-11T15:44:21.641Z,21.57
2017-10-11T15:46:49.058Z,15.13
2017-10-11T15:49:17.250Z,16.70
2017-10-11T15:51:44.663Z,17.00
2017-10-11T15:54:12.098Z,23.97
2017-10-11T15:56:40.064Z,18.62
2017-10-11T15:59:07.483Z,19.30
2017-10-11T16:01:34.903Z,16.67
2017-10-11T16:04:02.335Z,17.63
2017-10-11T16:06:29.763Z,15.10
2017-10-11T16:08:57.196Z,14.70
2017-10-11T16:11:25.366Z,14.37
2017-10-11T16:13:53.568Z,16.80
2017-10-11T16:16:21.023Z,14.53
2017-10-11T16:18:48.459Z,15.20
2017-10-11T16:21:16.633Z,17.07
2017-10-11T16:23:44.059Z,12.73
2017-10-11T16:26:11.495Z,17.93
2017-10-11T16:28:38.927Z,12.80
2017-10-11T16:31:06.361Z,13.20
2017-10-11T16:33:34.531Z,16.73
2017-10-11T16:36:02.724Z,14.57
2017-10-11T16:38:30.139Z,14.97
2017-10-11T16:40:58.359Z,19.23
2017-10-11T16:43:25.819Z,13.97
2017-10-11T16:45:53.243Z,13.17
2017-10-11T16:48:21.455Z,20.90
2017-10-11T16:50:48.882Z,16.40
2017-10-11T16:53:17.046Z,14.30
2017-10-11T16:55:45.235Z,19.83
2017-10-11T16:58:12.658Z,15.10
2017-10-11T17:00:42.082Z,15.17
2017-10-11T17:03:09.494Z,17.07
2017-10-11T17:05:36.927Z,19.50
2017-10-11T17:08:04.355Z,14.37
2017-10-11T17:10:32.531Z,17.50
2017-10-11T17:12:59.953Z,15.90
2017-10-11T17:15:28.875Z,13.73
2017-10-11T17:17:56.291Z,12.67
2017-10-11T17:20:23.713Z,14.40
2017-10-11T17:22:51.204Z,11.40
2017-10-11T17:25:18.636Z,13.90
2017-10-11T17:27:46.031Z,12.13
2017-10-11T17:30:14.220Z,12.50
2017-10-11T17:32:42.402Z,10.57
2017-10-11T17:35:09.891Z,12.77
2017-10-11T17:37:37.316Z,12.03
2017-10-11T17:40:04.723Z,9.73
2017-10-11T17:42:32.144Z,14.97
2017-10-11T17:44:59.566Z,19.10
2017-10-11T17:47:27.763Z,20.40
2017-10-11T17:49:55.213Z,18.83
2017-10-11T17:52:23.377Z,20.77
2017-10-11T17:54:51.570Z,14.63
2017-10-11T17:57:18.987Z,11.17
2017-10-11T17:59:46.483Z,10.33
2017-10-11T18:02:13.899Z,11.37
2017-10-11T18:04:42.062Z,10.05
2017-10-11T18:07:09.479Z,9.30
2017-10-11T18:09:36.899Z,10.80
2017-10-11T18:12:05.078Z,11.83
2017-10-11T18:14:33.293Z,9.10
2017-10-11T18:17:00.703Z,9.90
2017-10-11T18:19:28.883Z,11.07
2017-10-11T18:21:57.062Z,9.43
2017-10-11T18:24:24.896Z,7.67
2017-10-11T18:26:52.366Z,10.67
2017-10-11T18:29:19.783Z,9.20
2017-10-11T18:31:47.207Z,12.10
2017-10-11T18:34:15.384Z,9.73
2017-10-11T18:36:42.795Z,12.00
2017-10-11T18:39:11.027Z,9.53
2017-10-11T18:41:38.420Z,9.80
2017-10-11T18:44:05.851Z,7.80
2017-10-11T18:46:33.268Z,8.80
2017-10-11T18:49:00.706Z,8.43
2017-10-11T18:51:28.919Z,13.27
2017-10-11T18:53:56.362Z,9.50
2017-10-11T18:56:23.807Z,12.30
2017-10-11T18:58:51.995Z,11.00
2017-10-11T19:01:19.435Z,8.80
2017-10-11T19:03:47.615Z,9.37
2017-10-11T19:06:15.042Z,9.23
2017-10-11T19:08:43.782Z,8.15
2017-10-11T19:11:11.178Z,8.80
2017-10-11T19:13:38.645Z,10.70
2017-10-11T19:16:06.058Z,8.63
2017-10-11T19:18:33.455Z,7.60
2017-10-11T19:21:00.860Z,9.13
2017-10-11T19:23:28.314Z,8.83
2017-10-11T19:25:55.735Z,10.70
2017-10-11T19:28:23.922Z,13.43
2017-10-11T19:30:52.114Z,8.10
2017-10-11T19:33:19.542Z,7.47
2017-10-11T19:35:47.730Z,9.30
2017-10-11T19:38:15.151Z,8.87
2017-10-11T19:40:44.167Z,12.30
2017-10-11T19:43:12.343Z,16.93
2017-10-11T19:45:40.545Z,10.33
2017-10-11T19:48:07.954Z,13.03
2017-10-11T19:50:36.130Z,8.70
2017-10-11T19:53:04.307Z,7.60
2017-10-11T19:55:32.491Z,18.20
2017-10-11T19:58:00.667Z,7.40
2017-10-11T20:00:32.656Z,7.40
2017-10-11T20:03:00.064Z,11.93
2017-10-11T20:05:27.582Z,10.73
2017-10-11T20:07:55.001Z,9.20
2017-10-11T20:10:23.185Z,10.70
2017-10-11T20:12:50.614Z,9.17
2017-10-11T20:15:18.030Z,9.27
2017-10-11T20:17:45.438Z,9.70
2017-10-11T20:20:14.538Z,8.27
2017-10-11T20:22:41.954Z,9.10
2017-10-11T20:25:09.368Z,9.13
2017-10-11T20:27:36.783Z,7.30
2017-10-11T20:30:04.217Z,8.50
2017-10-11T20:32:31.642Z,11.80
2017-10-11T20:34:59.050Z,6.80
2017-10-11T20:37:27.235Z,8.13
2017-10-11T20:39:55.418Z,7.60
2017-10-11T20:42:23.608Z,9.80
2017-10-11T20:44:51.030Z,8.43
2017-10-11T20:47:19.215Z,10.87
2017-10-11T20:49:47.408Z,9.67
2017-10-11T20:52:14.828Z,10.93
2017-10-11T20:54:42.258Z,8.40
2017-10-11T20:57:09.682Z,8.20
2017-10-11T20:59:37.119Z,7.63
2017-10-11T21:02:05.294Z,8.47
2017-10-11T21:04:32.706Z,7.90
2017-10-11T21:07:00.119Z,6.93
2017-10-11T21:09:27.540Z,10.43
2017-10-11T21:11:54.958Z,9.57
2017-10-11T21:14:22.391Z,12.87
2017-10-11T21:16:49.838Z,6.70
2017-10-11T21:19:17.251Z,5.70
2017-10-11T21:21:44.869Z,10.77
2017-10-11T21:24:12.271Z,8.93
2017-10-11T21:26:39.691Z,7.53
2017-10-11T21:29:07.099Z,6.43
2017-10-11T21:31:35.287Z,11.93
2017-10-11T21:34:02.703Z,6.28
2017-10-11T21:36:30.115Z,9.80
2017-10-11T21:38:57.563Z,5.43
2017-10-11T21:41:25.004Z,6.73
2017-10-11T21:43:53.208Z,7.73
2017-10-11T21:46:20.632Z,6.97
2017-10-11T21:48:48.819Z,6.70
2017-10-11T21:51:16.263Z,7.07
2017-10-11T21:53:45.362Z,8.43
2017-10-11T21:56:12.783Z,6.43
2017-10-11T21:58:40.194Z,7.10
2017-10-11T22:01:07.626Z,4.73
2017-10-11T22:03:35.807Z,7.33
2017-10-11T22:06:03.227Z,5.63
2017-10-11T22:08:30.658Z,5.90
2017-10-11T22:10:58.067Z,4.10
2017-10-11T22:13:26.247Z,8.10
2017-10-11T22:15:53.669Z,10.73
2017-10-11T22:18:21.085Z,7.43
2017-10-11T22:20:48.507Z,4.30
2017-10-11T22:23:16.687Z,6.63
2017-10-11T22:25:44.106Z,7.07
2017-10-11T22:28:11.515Z,4.13
2017-10-11T22:30:38.919Z,7.00
2017-10-11T22:33:06.335Z,5.57
2017-10-11T22:35:33.767Z,5.50
2017-10-11T22:38:01.183Z,6.10
2017-10-11T22:40:28.600Z,6.10
2017-10-11T22:42:56.034Z,6.30
2017-10-11T22:45:24.232Z,7.53
2017-10-11T22:47:51.722Z,9.13
2017-10-11T22:50:19.130Z,4.73
2017-10-11T22:52:46.549Z,6.47
2017-10-11T22:55:13.946Z,4.60
2017-10-11T22:57:41.359Z,7.87
2017-10-11T23:00:08.846Z,14.53
2017-10-11T23:02:37.022Z,5.60
2017-10-11T23:05:04.443Z,6.10
2017-10-11T23:07:31.899Z,4.20
2017-10-11T23:09:59.306Z,5.23
2017-10-11T23:12:26.726Z,6.87
2017-10-11T23:14:54.927Z,8.13
2017-10-11T23:17:22.342Z,8.50
2017-10-11T23:19:50.581Z,4.13
2017-10-11T23:22:18.003Z,6.93
2017-10-11T23:24:47.112Z,13.20
2017-10-11T23:27:14.529Z,5.40
2017-10-11T23:29:41.944Z,6.43
2017-10-11T23:32:09.387Z,7.90
2017-10-11T23:34:36.799Z,7.00
2017-10-11T23:37:04.999Z,6.20
2017-10-11T23:39:33.177Z,7.10
2017-10-11T23:42:00.611Z,13.50
2017-10-11T23:44:28.805Z,15.60
2017-10-11T23:46:56.989Z,6.17
2017-10-11T23:49:24.419Z,3.53
2017-10-11T23:51:52.611Z,6.73
2017-10-11T23:54:20.787Z,4.53
2017-10-11T23:56:48.251Z,4.53
2017-10-11T23:59:15.678Z,7.00
